LFSB METAR :   2017/07/24 20:00 LFSB 242000Z 24006KT 9999 FEW033 FEW040TCU SCT048 BKN066 15/13 Q1013 NOSIG

TAF  2017/07/24 18:21 TAF LFSB 241700Z 2418/2518 27010KT 9999 FEW030TCU BKN090 TEMPO 2418/2518 -SHRA PROB40 TEMPO 2418/2420 30015G25KT 4000 SHRA SCT030CB PROB40 TEMPO 2502/2507 3000 RA BKN013 FEW020TCU PROB40 TEMPO 2514/2518 30017G30KT 3000 SHRA SCT030CB